sensor_id;sensor_type;location;lat;lon;timestamp;P1;durP1;ratioP1;P2;durP2;ratioP2
77612;SDS011;66777;52.282;5.960;2023-02-28T00:00:29;8.27;;;2.92;;
77612;SDS011;66777;52.282;5.960;2023-02-28T00:02:57;7.78;;;3.15;;
77612;SDS011;66777;52.282;5.960;2023-02-28T00:05:23;8.57;;;2.92;;
77612;SDS011;66777;52.282;5.960;2023-02-28T00:07:50;7.78;;;3.40;;
77612;SDS011;66777;52.282;5.960;2023-02-28T00:10:17;8.60;;;3.03;;
77612;SDS011;66777;52.282;5.960;2023-02-28T00:12:50;10.52;;;2.85;;
77612;SDS011;66777;52.282;5.960;2023-02-28T00:15:17;7.63;;;2.97;;
77612;SDS011;66777;52.282;5.960;2023-02-28T00:17:43;7.07;;;3.38;;
77612;SDS011;66777;52.282;5.960;2023-02-28T00:20:10;8.65;;;3.63;;
77612;SDS011;66777;52.282;5.960;2023-02-28T00:22:41;7.72;;;3.45;;
77612;SDS011;66777;52.282;5.960;2023-02-28T00:25:08;11.35;;;3.60;;
77612;SDS011;66777;52.282;5.960;2023-02-28T00:27:35;8.60;;;3.17;;
77612;SDS011;66777;52.282;5.960;2023-02-28T00:30:02;7.63;;;3.00;;
77612;SDS011;66777;52.282;5.960;2023-02-28T00:32:28;7.88;;;3.03;;
77612;SDS011;66777;52.282;5.960;2023-02-28T00:34:54;6.70;;;2.90;;
77612;SDS011;66777;52.282;5.960;2023-02-28T00:37:20;8.02;;;2.85;;
77612;SDS011;66777;52.282;5.960;2023-02-28T00:39:47;4.80;;;2.40;;
77612;SDS011;66777;52.282;5.960;2023-02-28T00:42:12;7.60;;;2.78;;
77612;SDS011;66777;52.282;5.960;2023-02-28T00:44:41;7.95;;;2.97;;
77612;SDS011;66777;52.282;5.960;2023-02-28T00:47:07;8.73;;;2.85;;
77612;SDS011;66777;52.282;5.960;2023-02-28T00:49:33;7.20;;;2.38;;
77612;SDS011;66777;52.282;5.960;2023-02-28T00:51:58;7.03;;;2.20;;
77612;SDS011;66777;52.282;5.960;2023-02-28T00:54:24;7.60;;;2.78;;
77612;SDS011;66777;52.282;5.960;2023-02-28T00:56:49;6.22;;;2.33;;
77612;SDS011;66777;52.282;5.960;2023-02-28T00:59:15;8.45;;;2.22;;
77612;SDS011;66777;52.282;5.960;2023-02-28T01:01:42;6.68;;;2.03;;
77612;SDS011;66777;52.282;5.960;2023-02-28T01:04:09;4.28;;;1.98;;
77612;SDS011;66777;52.282;5.960;2023-02-28T01:06:34;6.85;;;2.67;;
77612;SDS011;66777;52.282;5.960;2023-02-28T01:09:01;5.47;;;2.17;;
77612;SDS011;66777;52.282;5.960;2023-02-28T01:11:27;6.00;;;2.20;;
77612;SDS011;66777;52.282;5.960;2023-02-28T01:13:53;6.57;;;2.42;;
77612;SDS011;66777;52.282;5.960;2023-02-28T01:16:18;6.45;;;2.65;;
77612;SDS011;66777;52.282;5.960;2023-02-28T01:18:44;6.88;;;2.72;;
77612;SDS011;66777;52.282;5.960;2023-02-28T01:21:11;5.68;;;2.42;;
77612;SDS011;66777;52.282;5.960;2023-02-28T01:23:39;7.45;;;2.63;;
77612;SDS011;66777;52.282;5.960;2023-02-28T01:26:08;8.35;;;2.90;;
77612;SDS011;66777;52.282;5.960;2023-02-28T01:28:38;7.53;;;3.05;;
77612;SDS011;66777;52.282;5.960;2023-02-28T01:31:03;6.38;;;2.85;;
77612;SDS011;66777;52.282;5.960;2023-02-28T01:33:30;6.68;;;2.67;;
77612;SDS011;66777;52.282;5.960;2023-02-28T01:36:03;7.28;;;2.72;;
77612;SDS011;66777;52.282;5.960;2023-02-28T01:38:31;7.60;;;2.70;;
77612;SDS011;66777;52.282;5.960;2023-02-28T01:40:57;7.65;;;2.72;;
77612;SDS011;66777;52.282;5.960;2023-02-28T01:43:32;10.05;;;2.55;;
77612;SDS011;66777;52.282;5.960;2023-02-28T01:46:14;8.10;;;2.78;;
77612;SDS011;66777;52.282;5.960;2023-02-28T01:48:51;6.95;;;2.33;;
77612;SDS011;66777;52.282;5.960;2023-02-28T01:51:18;5.20;;;2.13;;
77612;SDS011;66777;52.282;5.960;2023-02-28T01:53:57;5.32;;;2.22;;
77612;SDS011;66777;52.282;5.960;2023-02-28T01:56:28;5.93;;;2.70;;
77612;SDS011;66777;52.282;5.960;2023-02-28T01:58:56;6.25;;;2.67;;
77612;SDS011;66777;52.282;5.960;2023-02-28T02:01:22;7.88;;;2.90;;
77612;SDS011;66777;52.282;5.960;2023-02-28T02:03:51;6.35;;;2.33;;
77612;SDS011;66777;52.282;5.960;2023-02-28T02:09:16;6.25;;;2.40;;
77612;SDS011;66777;52.282;5.960;2023-02-28T02:11:42;6.30;;;2.33;;
77612;SDS011;66777;52.282;5.960;2023-02-28T02:14:31;5.57;;;2.35;;
77612;SDS011;66777;52.282;5.960;2023-02-28T02:25:26;5.90;;;2.45;;
77612;SDS011;66777;52.282;5.960;2023-02-28T02:33:41;6.50;;;2.67;;
77612;SDS011;66777;52.282;5.960;2023-02-28T02:41:34;7.20;;;2.63;;
77612;SDS011;66777;52.282;5.960;2023-02-28T02:44:13;6.40;;;2.90;;
77612;SDS011;66777;52.282;5.960;2023-02-28T02:46:48;7.72;;;2.33;;
77612;SDS011;66777;52.282;5.960;2023-02-28T02:49:22;6.90;;;2.70;;
77612;SDS011;66777;52.282;5.960;2023-02-28T02:51:52;6.25;;;2.60;;
77612;SDS011;66777;52.282;5.960;2023-02-28T02:54:24;7.32;;;2.67;;
77612;SDS011;66777;52.282;5.960;2023-02-28T02:56:53;6.70;;;2.80;;
77612;SDS011;66777;52.282;5.960;2023-02-28T02:59:25;7.22;;;2.97;;
77612;SDS011;66777;52.282;5.960;2023-02-28T03:01:55;6.57;;;2.67;;
77612;SDS011;66777;52.282;5.960;2023-02-28T03:04:26;5.18;;;2.47;;
77612;SDS011;66777;52.282;5.960;2023-02-28T03:06:56;6.88;;;2.50;;
77612;SDS011;66777;52.282;5.960;2023-02-28T03:09:22;6.90;;;2.22;;
77612;SDS011;66777;52.282;5.960;2023-02-28T03:11:50;6.55;;;2.13;;
77612;SDS011;66777;52.282;5.960;2023-02-28T03:19:33;7.57;;;3.28;;
77612;SDS011;66777;52.282;5.960;2023-02-28T03:22:14;7.05;;;3.08;;
77612;SDS011;66777;52.282;5.960;2023-02-28T03:27:30;6.95;;;3.40;;
77612;SDS011;66777;52.282;5.960;2023-02-28T03:30:23;7.53;;;3.10;;
77612;SDS011;66777;52.282;5.960;2023-02-28T03:32:56;6.30;;;2.92;;
77612;SDS011;66777;52.282;5.960;2023-02-28T03:35:26;6.57;;;3.03;;
77612;SDS011;66777;52.282;5.960;2023-02-28T03:38:08;8.80;;;3.53;;
77612;SDS011;66777;52.282;5.960;2023-02-28T03:40:51;6.18;;;2.88;;
77612;SDS011;66777;52.282;5.960;2023-02-28T03:43:28;8.20;;;3.10;;
77612;SDS011;66777;52.282;5.960;2023-02-28T03:45:57;7.03;;;3.40;;
77612;SDS011;66777;52.282;5.960;2023-02-28T03:48:49;7.00;;;3.28;;
77612;SDS011;66777;52.282;5.960;2023-02-28T03:51:17;8.00;;;3.28;;
77612;SDS011;66777;52.282;5.960;2023-02-28T03:53:50;6.25;;;2.78;;
77612;SDS011;66777;52.282;5.960;2023-02-28T03:56:30;7.90;;;3.38;;
77612;SDS011;66777;52.282;5.960;2023-02-28T03:59:07;6.15;;;3.08;;
77612;SDS011;66777;52.282;5.960;2023-02-28T04:01:44;8.68;;;3.63;;
77612;SDS011;66777;52.282;5.960;2023-02-28T04:04:11;8.77;;;3.30;;
77612;SDS011;66777;52.282;5.960;2023-02-28T04:06:38;7.22;;;3.45;;
77612;SDS011;66777;52.282;5.960;2023-02-28T04:09:06;9.15;;;3.17;;
77612;SDS011;66777;52.282;5.960;2023-02-28T04:11:42;6.80;;;3.03;;
77612;SDS011;66777;52.282;5.960;2023-02-28T04:14:10;7.60;;;3.28;;
77612;SDS011;66777;52.282;5.960;2023-02-28T04:16:38;9.40;;;3.17;;
77612;SDS011;66777;52.282;5.960;2023-02-28T04:19:06;8.43;;;3.70;;
77612;SDS011;66777;52.282;5.960;2023-02-28T04:21:35;7.55;;;2.97;;
77612;SDS011;66777;52.282;5.960;2023-02-28T04:24:14;6.80;;;2.90;;
77612;SDS011;66777;52.282;5.960;2023-02-28T04:26:42;6.55;;;2.90;;
77612;SDS011;66777;52.282;5.960;2023-02-28T04:29:10;8.35;;;3.45;;
77612;SDS011;66777;52.282;5.960;2023-02-28T04:31:38;10.23;;;3.58;;
77612;SDS011;66777;52.282;5.960;2023-02-28T04:34:05;8.27;;;3.42;;
77612;SDS011;66777;52.282;5.960;2023-02-28T04:36:31;7.32;;;2.67;;
77612;SDS011;66777;52.282;5.960;2023-02-28T04:38:57;8.60;;;2.88;;
77612;SDS011;66777;52.282;5.960;2023-02-28T04:41:23;6.97;;;2.83;;
77612;SDS011;66777;52.282;5.960;2023-02-28T04:43:49;7.00;;;3.20;;
77612;SDS011;66777;52.282;5.960;2023-02-28T04:46:16;7.20;;;3.08;;
77612;SDS011;66777;52.282;5.960;2023-02-28T04:48:43;6.97;;;3.05;;
77612;SDS011;66777;52.282;5.960;2023-02-28T04:51:10;6.18;;;2.97;;
77612;SDS011;66777;52.282;5.960;2023-02-28T04:53:38;6.68;;;3.20;;
77612;SDS011;66777;52.282;5.960;2023-02-28T04:56:05;6.10;;;3.00;;
77612;SDS011;66777;52.282;5.960;2023-02-28T04:58:32;7.30;;;3.17;;
77612;SDS011;66777;52.282;5.960;2023-02-28T05:03:56;5.45;;;2.95;;
77612;SDS011;66777;52.282;5.960;2023-02-28T05:06:23;6.18;;;2.50;;
77612;SDS011;66777;52.282;5.960;2023-02-28T05:08:50;8.48;;;3.08;;
77612;SDS011;66777;52.282;5.960;2023-02-28T05:11:17;6.97;;;2.45;;
77612;SDS011;66777;52.282;5.960;2023-02-28T05:13:43;5.93;;;2.63;;
77612;SDS011;66777;52.282;5.960;2023-02-28T05:16:09;8.30;;;3.38;;
77612;SDS011;66777;52.282;5.960;2023-02-28T05:18:35;5.03;;;2.47;;
77612;SDS011;66777;52.282;5.960;2023-02-28T05:21:01;5.40;;;2.20;;
77612;SDS011;66777;52.282;5.960;2023-02-28T05:23:27;7.28;;;2.63;;
77612;SDS011;66777;52.282;5.960;2023-02-28T05:25:54;5.38;;;2.17;;
77612;SDS011;66777;52.282;5.960;2023-02-28T05:28:20;7.80;;;2.63;;
77612;SDS011;66777;52.282;5.960;2023-02-28T05:30:46;9.13;;;3.10;;
77612;SDS011;66777;52.282;5.960;2023-02-28T05:33:12;7.80;;;2.42;;
77612;SDS011;66777;52.282;5.960;2023-02-28T05:35:39;5.55;;;2.67;;
77612;SDS011;66777;52.282;5.960;2023-02-28T05:38:05;6.57;;;2.50;;
77612;SDS011;66777;52.282;5.960;2023-02-28T05:40:31;6.25;;;2.63;;
77612;SDS011;66777;52.282;5.960;2023-02-28T05:42:57;6.55;;;2.50;;
77612;SDS011;66777;52.282;5.960;2023-02-28T05:45:22;8.82;;;2.50;;
77612;SDS011;66777;52.282;5.960;2023-02-28T05:47:48;6.97;;;2.88;;
77612;SDS011;66777;52.282;5.960;2023-02-28T05:50:14;7.80;;;3.05;;
77612;SDS011;66777;52.282;5.960;2023-02-28T05:52:39;6.57;;;2.80;;
77612;SDS011;66777;52.282;5.960;2023-02-28T05:55:05;5.18;;;2.25;;
77612;SDS011;66777;52.282;5.960;2023-02-28T05:57:31;5.65;;;2.33;;
77612;SDS011;66777;52.282;5.960;2023-02-28T05:59:57;6.97;;;2.42;;
77612;SDS011;66777;52.282;5.960;2023-02-28T06:02:22;6.53;;;2.03;;
77612;SDS011;66777;52.282;5.960;2023-02-28T06:04:48;6.95;;;2.30;;
77612;SDS011;66777;52.282;5.960;2023-02-28T06:07:14;5.68;;;2.80;;
77612;SDS011;66777;52.282;5.960;2023-02-28T06:09:40;6.22;;;2.50;;
77612;SDS011;66777;52.282;5.960;2023-02-28T06:12:06;9.82;;;2.92;;
77612;SDS011;66777;52.282;5.960;2023-02-28T06:14:34;7.43;;;2.25;;
77612;SDS011;66777;52.282;5.960;2023-02-28T06:17:00;4.93;;;2.22;;
77612;SDS011;66777;52.282;5.960;2023-02-28T06:19:26;6.90;;;2.75;;
77612;SDS011;66777;52.282;5.960;2023-02-28T06:21:52;5.53;;;2.22;;
77612;SDS011;66777;52.282;5.960;2023-02-28T06:24:22;5.93;;;2.50;;
77612;SDS011;66777;52.282;5.960;2023-02-28T06:26:50;5.78;;;2.72;;
77612;SDS011;66777;52.282;5.960;2023-02-28T06:29:16;5.85;;;2.42;;
77612;SDS011;66777;52.282;5.960;2023-02-28T06:31:43;6.55;;;2.50;;
77612;SDS011;66777;52.282;5.960;2023-02-28T06:34:11;6.47;;;2.55;;
77612;SDS011;66777;52.282;5.960;2023-02-28T06:36:43;6.53;;;2.03;;
77612;SDS011;66777;52.282;5.960;2023-02-28T06:39:10;9.50;;;3.58;;
77612;SDS011;66777;52.282;5.960;2023-02-28T06:41:36;7.18;;;2.40;;
77612;SDS011;66777;52.282;5.960;2023-02-28T06:44:08;6.78;;;2.90;;
77612;SDS011;66777;52.282;5.960;2023-02-28T06:46:38;6.00;;;2.42;;
77612;SDS011;66777;52.282;5.960;2023-02-28T06:49:07;8.27;;;2.75;;
77612;SDS011;66777;52.282;5.960;2023-02-28T06:51:36;5.68;;;2.28;;
77612;SDS011;66777;52.282;5.960;2023-02-28T06:54:04;5.72;;;2.30;;
77612;SDS011;66777;52.282;5.960;2023-02-28T06:56:30;6.07;;;2.53;;
77612;SDS011;66777;52.282;5.960;2023-02-28T06:58:56;6.13;;;2.25;;
77612;SDS011;66777;52.282;5.960;2023-02-28T07:01:22;7.65;;;2.33;;
77612;SDS011;66777;52.282;5.960;2023-02-28T07:03:48;6.65;;;2.63;;
77612;SDS011;66777;52.282;5.960;2023-02-28T07:06:18;11.07;;;3.15;;
77612;SDS011;66777;52.282;5.960;2023-02-28T07:08:46;6.80;;;3.25;;
77612;SDS011;66777;52.282;5.960;2023-02-28T07:11:12;6.28;;;2.78;;
77612;SDS011;66777;52.282;5.960;2023-02-28T07:13:38;5.80;;;2.50;;
77612;SDS011;66777;52.282;5.960;2023-02-28T07:16:06;10.98;;;2.88;;
77612;SDS011;66777;52.282;5.960;2023-02-28T07:18:35;6.57;;;3.00;;
77612;SDS011;66777;52.282;5.960;2023-02-28T07:21:04;7.18;;;3.00;;
77612;SDS011;66777;52.282;5.960;2023-02-28T07:23:32;7.10;;;3.28;;
77612;SDS011;66777;52.282;5.960;2023-02-28T07:25:57;7.38;;;3.42;;
77612;SDS011;66777;52.282;5.960;2023-02-28T07:28:23;5.65;;;2.72;;
77612;SDS011;66777;52.282;5.960;2023-02-28T07:30:49;8.20;;;2.83;;
77612;SDS011;66777;52.282;5.960;2023-02-28T07:33:15;7.13;;;3.33;;
77612;SDS011;66777;52.282;5.960;2023-02-28T07:35:41;6.28;;;2.55;;
77612;SDS011;66777;52.282;5.960;2023-02-28T07:38:07;6.38;;;2.55;;
77612;SDS011;66777;52.282;5.960;2023-02-28T07:40:34;7.82;;;3.25;;
77612;SDS011;66777;52.282;5.960;2023-02-28T07:43:00;5.45;;;2.72;;
77612;SDS011;66777;52.282;5.960;2023-02-28T07:45:26;6.32;;;2.65;;
77612;SDS011;66777;52.282;5.960;2023-02-28T07:47:53;8.32;;;2.92;;
77612;SDS011;66777;52.282;5.960;2023-02-28T07:50:21;9.50;;;3.05;;
77612;SDS011;66777;52.282;5.960;2023-02-28T07:52:47;7.15;;;3.05;;
77612;SDS011;66777;52.282;5.960;2023-02-28T07:55:12;7.75;;;3.50;;
77612;SDS011;66777;52.282;5.960;2023-02-28T07:57:40;7.70;;;2.67;;
77612;SDS011;66777;52.282;5.960;2023-02-28T08:00:07;7.13;;;2.72;;
77612;SDS011;66777;52.282;5.960;2023-02-28T08:02:35;6.93;;;3.22;;
77612;SDS011;66777;52.282;5.960;2023-02-28T08:05:01;7.28;;;2.97;;
77612;SDS011;66777;52.282;5.960;2023-02-28T08:07:27;6.90;;;3.38;;
77612;SDS011;66777;52.282;5.960;2023-02-28T08:09:52;6.25;;;2.95;;
77612;SDS011;66777;52.282;5.960;2023-02-28T08:12:18;6.38;;;3.25;;
77612;SDS011;66777;52.282;5.960;2023-02-28T08:14:45;6.78;;;3.42;;
77612;SDS011;66777;52.282;5.960;2023-02-28T08:17:10;8.15;;;2.85;;
77612;SDS011;66777;52.282;5.960;2023-02-28T08:19:37;6.10;;;2.78;;
77612;SDS011;66777;52.282;5.960;2023-02-28T08:22:03;6.63;;;2.95;;
77612;SDS011;66777;52.282;5.960;2023-02-28T08:24:29;6.60;;;3.08;;
77612;SDS011;66777;52.282;5.960;2023-02-28T08:26:55;8.32;;;3.72;;
77612;SDS011;66777;52.282;5.960;2023-02-28T08:29:21;7.78;;;2.95;;
77612;SDS011;66777;52.282;5.960;2023-02-28T08:31:46;6.53;;;3.25;;
77612;SDS011;66777;52.282;5.960;2023-02-28T08:34:13;6.38;;;3.22;;
77612;SDS011;66777;52.282;5.960;2023-02-28T08:36:40;7.10;;;3.50;;
77612;SDS011;66777;52.282;5.960;2023-02-28T08:39:07;9.82;;;3.67;;
77612;SDS011;66777;52.282;5.960;2023-02-28T08:41:34;6.65;;;2.97;;
77612;SDS011;66777;52.282;5.960;2023-02-28T08:43:59;7.60;;;3.35;;
77612;SDS011;66777;52.282;5.960;2023-02-28T08:46:25;6.80;;;3.33;;
77612;SDS011;66777;52.282;5.960;2023-02-28T08:48:52;6.50;;;3.08;;
77612;SDS011;66777;52.282;5.960;2023-02-28T08:51:19;6.13;;;2.97;;
77612;SDS011;66777;52.282;5.960;2023-02-28T08:53:51;5.35;;;2.53;;
77612;SDS011;66777;52.282;5.960;2023-02-28T08:56:18;4.72;;;2.33;;
77612;SDS011;66777;52.282;5.960;2023-02-28T08:58:45;4.10;;;1.75;;
77612;SDS011;66777;52.282;5.960;2023-02-28T09:01:16;3.90;;;1.85;;
77612;SDS011;66777;52.282;5.960;2023-02-28T09:03:55;4.68;;;1.85;;
77612;SDS011;66777;52.282;5.960;2023-02-28T09:06:23;4.05;;;1.65;;
77612;SDS011;66777;52.282;5.960;2023-02-28T09:08:51;3.67;;;1.55;;
77612;SDS011;66777;52.282;5.960;2023-02-28T09:11:18;4.15;;;1.83;;
77612;SDS011;66777;52.282;5.960;2023-02-28T09:13:46;4.35;;;1.83;;
77612;SDS011;66777;52.282;5.960;2023-02-28T09:16:13;5.03;;;1.88;;
77612;SDS011;66777;52.282;5.960;2023-02-28T09:18:41;4.78;;;1.55;;
77612;SDS011;66777;52.282;5.960;2023-02-28T09:21:07;5.22;;;2.05;;
77612;SDS011;66777;52.282;5.960;2023-02-28T09:23:34;5.43;;;2.42;;
77612;SDS011;66777;52.282;5.960;2023-02-28T09:26:03;4.15;;;2.10;;
77612;SDS011;66777;52.282;5.960;2023-02-28T09:28:29;4.90;;;2.13;;
77612;SDS011;66777;52.282;5.960;2023-02-28T09:30:55;4.55;;;2.30;;
77612;SDS011;66777;52.282;5.960;2023-02-28T09:33:23;5.07;;;2.53;;
77612;SDS011;66777;52.282;5.960;2023-02-28T09:35:50;5.10;;;2.25;;
77612;SDS011;66777;52.282;5.960;2023-02-28T09:38:16;5.68;;;2.33;;
77612;SDS011;66777;52.282;5.960;2023-02-28T09:40:50;4.85;;;2.40;;
77612;SDS011;66777;52.282;5.960;2023-02-28T09:43:18;4.18;;;2.10;;
77612;SDS011;66777;52.282;5.960;2023-02-28T09:45:51;5.13;;;2.28;;
77612;SDS011;66777;52.282;5.960;2023-02-28T09:48:34;5.47;;;1.98;;
77612;SDS011;66777;52.282;5.960;2023-02-28T09:51:28;3.17;;;1.65;;
77612;SDS011;66777;52.282;5.960;2023-02-28T09:53:50;4.32;;;2.15;;
77612;SDS011;66777;52.282;5.960;2023-02-28T09:56:20;4.82;;;2.10;;
77612;SDS011;66777;52.282;5.960;2023-02-28T10:04:30;5.13;;;2.38;;
77612;SDS011;66777;52.282;5.960;2023-02-28T10:07:15;5.10;;;2.13;;
77612;SDS011;66777;52.282;5.960;2023-02-28T10:10:03;7.95;;;1.85;;
77612;SDS011;66777;52.282;5.960;2023-02-28T10:12:33;4.70;;;1.92;;
77612;SDS011;66777;52.282;5.960;2023-02-28T10:15:08;3.75;;;1.88;;
77612;SDS011;66777;52.282;5.960;2023-02-28T10:17:40;4.72;;;1.63;;
77612;SDS011;66777;52.282;5.960;2023-02-28T10:20:10;4.10;;;2.08;;
77612;SDS011;66777;52.282;5.960;2023-02-28T10:27:59;4.15;;;2.10;;
77612;SDS011;66777;52.282;5.960;2023-02-28T10:30:30;4.90;;;2.05;;
77612;SDS011;66777;52.282;5.960;2023-02-28T10:33:01;4.85;;;2.10;;
77612;SDS011;66777;52.282;5.960;2023-02-28T10:35:27;4.32;;;2.25;;
77612;SDS011;66777;52.282;5.960;2023-02-28T10:37:55;4.35;;;1.92;;
77612;SDS011;66777;52.282;5.960;2023-02-28T10:43:35;4.22;;;2.10;;
77612;SDS011;66777;52.282;5.960;2023-02-28T10:45:40;5.32;;;2.30;;
77612;SDS011;66777;52.282;5.960;2023-02-28T10:53:26;4.15;;;2.05;;
77612;SDS011;66777;52.282;5.960;2023-02-28T10:58:23;4.50;;;2.70;;
77612;SDS011;66777;52.282;5.960;2023-02-28T11:00:52;4.15;;;2.15;;
77612;SDS011;66777;52.282;5.960;2023-02-28T11:03:31;4.55;;;2.35;;
77612;SDS011;66777;52.282;5.960;2023-02-28T11:06:04;4.43;;;2.50;;
77612;SDS011;66777;52.282;5.960;2023-02-28T11:08:31;5.68;;;2.88;;
77612;SDS011;66777;52.282;5.960;2023-02-28T11:10:58;5.15;;;3.10;;
77612;SDS011;66777;52.282;5.960;2023-02-28T11:13:32;4.80;;;2.53;;
77612;SDS011;66777;52.282;5.960;2023-02-28T11:16:04;6.47;;;3.25;;
77612;SDS011;66777;52.282;5.960;2023-02-28T11:21:25;5.03;;;3.58;;
77612;SDS011;66777;52.282;5.960;2023-02-28T11:23:58;5.95;;;3.42;;
77612;SDS011;66777;52.282;5.960;2023-02-28T11:26:39;5.88;;;3.80;;
77612;SDS011;66777;52.282;5.960;2023-02-28T11:29:10;5.78;;;3.60;;
77612;SDS011;66777;52.282;5.960;2023-02-28T11:31:39;5.85;;;3.47;;
77612;SDS011;66777;52.282;5.960;2023-02-28T11:34:21;6.55;;;4.15;;
77612;SDS011;66777;52.282;5.960;2023-02-28T11:36:49;6.22;;;5.63;;
77612;SDS011;66777;52.282;5.960;2023-02-28T11:39:18;7.10;;;6.40;;
77612;SDS011;66777;52.282;5.960;2023-02-28T11:47:02;14.35;;;13.52;;
77612;SDS011;66777;52.282;5.960;2023-02-28T11:50:15;17.90;;;16.83;;
77612;SDS011;66777;52.282;5.960;2023-02-28T11:53:01;19.77;;;18.70;;
77612;SDS011;66777;52.282;5.960;2023-02-28T11:55:36;22.83;;;21.63;;
77612;SDS011;66777;52.282;5.960;2023-02-28T12:01:06;22.90;;;21.77;;
77612;SDS011;66777;52.282;5.960;2023-02-28T12:09:52;26.63;;;25.40;;
77612;SDS011;66777;52.282;5.960;2023-02-28T12:20:42;25.95;;;24.65;;
77612;SDS011;66777;52.282;5.960;2023-02-28T12:29:12;27.83;;;26.50;;
77612;SDS011;66777;52.282;5.960;2023-02-28T12:32:11;27.92;;;26.60;;
77612;SDS011;66777;52.282;5.960;2023-02-28T12:34:50;27.10;;;25.85;;
77612;SDS011;66777;52.282;5.960;2023-02-28T12:37:22;25.92;;;24.73;;
77612;SDS011;66777;52.282;5.960;2023-02-28T12:40:06;28.30;;;26.98;;
77612;SDS011;66777;52.282;5.960;2023-02-28T12:42:42;29.40;;;28.08;;
77612;SDS011;66777;52.282;5.960;2023-02-28T12:45:31;29.02;;;27.70;;
77612;SDS011;66777;52.282;5.960;2023-02-28T12:48:07;31.90;;;30.42;;
77612;SDS011;66777;52.282;5.960;2023-02-28T12:50:36;33.85;;;32.35;;
77612;SDS011;66777;52.282;5.960;2023-02-28T12:53:03;31.10;;;29.70;;
77612;SDS011;66777;52.282;5.960;2023-02-28T12:55:49;31.23;;;29.83;;
77612;SDS011;66777;52.282;5.960;2023-02-28T12:58:29;33.05;;;31.63;;
77612;SDS011;66777;52.282;5.960;2023-02-28T13:06:42;29.33;;;27.80;;
77612;SDS011;66777;52.282;5.960;2023-02-28T13:09:16;30.65;;;29.25;;
77612;SDS011;66777;52.282;5.960;2023-02-28T13:14:24;28.13;;;26.80;;
77612;SDS011;66777;52.282;5.960;2023-02-28T13:19:38;32.22;;;30.75;;
77612;SDS011;66777;52.282;5.960;2023-02-28T13:22:04;34.17;;;32.72;;
77612;SDS011;66777;52.282;5.960;2023-02-28T13:24:41;30.58;;;29.27;;
77612;SDS011;66777;52.282;5.960;2023-02-28T13:29:34;31.33;;;30.00;;
77612;SDS011;66777;52.282;5.960;2023-02-28T13:34:41;34.63;;;33.20;;
77612;SDS011;66777;52.282;5.960;2023-02-28T13:39:55;37.60;;;36.05;;
77612;SDS011;66777;52.282;5.960;2023-02-28T13:50:22;31.95;;;30.45;;
77612;SDS011;66777;52.282;5.960;2023-02-28T13:55:30;26.92;;;25.73;;
77612;SDS011;66777;52.282;5.960;2023-02-28T14:09:01;18.10;;;16.95;;
77612;SDS011;66777;52.282;5.960;2023-02-28T14:13:59;10.32;;;9.52;;
77612;SDS011;66777;52.282;5.960;2023-02-28T14:16:27;10.50;;;9.70;;
77612;SDS011;66777;52.282;5.960;2023-02-28T14:21:34;7.45;;;6.82;;
77612;SDS011;66777;52.282;5.960;2023-02-28T14:32:15;7.65;;;6.95;;
77612;SDS011;66777;52.282;5.960;2023-02-28T14:37:47;7.03;;;6.32;;
77612;SDS011;66777;52.282;5.960;2023-02-28T14:40:14;7.00;;;5.93;;
77612;SDS011;66777;52.282;5.960;2023-02-28T14:42:46;7.20;;;6.00;;
77612;SDS011;66777;52.282;5.960;2023-02-28T14:45:17;7.53;;;4.10;;
77612;SDS011;66777;52.282;5.960;2023-02-28T14:47:46;6.75;;;4.88;;
77612;SDS011;66777;52.282;5.960;2023-02-28T14:50:18;5.28;;;3.70;;
77612;SDS011;66777;52.282;5.960;2023-02-28T14:52:45;6.28;;;3.92;;
77612;SDS011;66777;52.282;5.960;2023-02-28T14:55:12;6.90;;;4.28;;
77612;SDS011;66777;52.282;5.960;2023-02-28T14:57:50;6.13;;;4.50;;
77612;SDS011;66777;52.282;5.960;2023-02-28T15:00:32;6.00;;;4.43;;
77612;SDS011;66777;52.282;5.960;2023-02-28T15:02:59;9.13;;;5.63;;
77612;SDS011;66777;52.282;5.960;2023-02-28T15:05:37;5.50;;;3.78;;
77612;SDS011;66777;52.282;5.960;2023-02-28T15:10:31;6.03;;;3.47;;
77612;SDS011;66777;52.282;5.960;2023-02-28T15:12:59;7.20;;;3.38;;
77612;SDS011;66777;52.282;5.960;2023-02-28T15:15:34;8.48;;;4.18;;
77612;SDS011;66777;52.282;5.960;2023-02-28T15:18:20;6.07;;;3.75;;
77612;SDS011;66777;52.282;5.960;2023-02-28T15:20:50;5.82;;;4.63;;
77612;SDS011;66777;52.282;5.960;2023-02-28T15:23:17;5.57;;;3.33;;
77612;SDS011;66777;52.282;5.960;2023-02-28T15:25:45;5.60;;;3.55;;
77612;SDS011;66777;52.282;5.960;2023-02-28T15:28:13;6.20;;;3.90;;
77612;SDS011;66777;52.282;5.960;2023-02-28T15:30:56;5.63;;;3.60;;
77612;SDS011;66777;52.282;5.960;2023-02-28T15:33:24;8.10;;;4.72;;
77612;SDS011;66777;52.282;5.960;2023-02-28T15:36:03;4.72;;;2.75;;
77612;SDS011;66777;52.282;5.960;2023-02-28T15:38:33;6.03;;;3.05;;
77612;SDS011;66777;52.282;5.960;2023-02-28T15:41:01;6.75;;;3.47;;
77612;SDS011;66777;52.282;5.960;2023-02-28T15:43:33;6.38;;;2.97;;
77612;SDS011;66777;52.282;5.960;2023-02-28T15:46:12;6.13;;;3.33;;
77612;SDS011;66777;52.282;5.960;2023-02-28T15:48:53;6.28;;;3.58;;
77612;SDS011;66777;52.282;5.960;2023-02-28T15:51:24;6.60;;;3.67;;
77612;SDS011;66777;52.282;5.960;2023-02-28T15:54:02;7.47;;;3.78;;
77612;SDS011;66777;52.282;5.960;2023-02-28T15:56:33;5.97;;;3.15;;
77612;SDS011;66777;52.282;5.960;2023-02-28T15:59:19;6.72;;;3.15;;
77612;SDS011;66777;52.282;5.960;2023-02-28T16:02:01;8.68;;;3.30;;
77612;SDS011;66777;52.282;5.960;2023-02-28T16:07:26;6.93;;;3.47;;
77612;SDS011;66777;52.282;5.960;2023-02-28T16:09:52;7.10;;;4.18;;
77612;SDS011;66777;52.282;5.960;2023-02-28T16:12:18;6.18;;;3.50;;
77612;SDS011;66777;52.282;5.960;2023-02-28T16:14:45;6.47;;;2.95;;
77612;SDS011;66777;52.282;5.960;2023-02-28T16:17:19;5.38;;;2.55;;
77612;SDS011;66777;52.282;5.960;2023-02-28T16:19:48;7.20;;;3.65;;
77612;SDS011;66777;52.282;5.960;2023-02-28T16:22:14;5.32;;;2.65;;
77612;SDS011;66777;52.282;5.960;2023-02-28T16:24:39;5.75;;;3.05;;
77612;SDS011;66777;52.282;5.960;2023-02-28T16:27:06;6.18;;;3.35;;
77612;SDS011;66777;52.282;5.960;2023-02-28T16:29:35;5.95;;;2.97;;
77612;SDS011;66777;52.282;5.960;2023-02-28T16:32:04;6.85;;;2.95;;
77612;SDS011;66777;52.282;5.960;2023-02-28T16:34:30;6.20;;;2.60;;
77612;SDS011;66777;52.282;5.960;2023-02-28T16:36:56;5.80;;;3.00;;
77612;SDS011;66777;52.282;5.960;2023-02-28T16:39:23;7.15;;;2.83;;
77612;SDS011;66777;52.282;5.960;2023-02-28T16:41:49;6.72;;;3.47;;
77612;SDS011;66777;52.282;5.960;2023-02-28T16:44:29;6.55;;;3.28;;
77612;SDS011;66777;52.282;5.960;2023-02-28T16:46:57;7.82;;;3.15;;
77612;SDS011;66777;52.282;5.960;2023-02-28T16:49:25;5.70;;;3.03;;
77612;SDS011;66777;52.282;5.960;2023-02-28T16:51:50;6.15;;;3.03;;
77612;SDS011;66777;52.282;5.960;2023-02-28T16:54:16;8.57;;;3.13;;
77612;SDS011;66777;52.282;5.960;2023-02-28T16:56:43;6.82;;;3.35;;
77612;SDS011;66777;52.282;5.960;2023-02-28T16:59:11;6.88;;;2.85;;
77612;SDS011;66777;52.282;5.960;2023-02-28T17:01:37;8.40;;;3.20;;
77612;SDS011;66777;52.282;5.960;2023-02-28T17:04:03;7.78;;;2.90;;
77612;SDS011;66777;52.282;5.960;2023-02-28T17:06:29;7.32;;;3.45;;
77612;SDS011;66777;52.282;5.960;2023-02-28T17:08:56;10.10;;;3.25;;
77612;SDS011;66777;52.282;5.960;2023-02-28T17:11:22;6.30;;;2.97;;
77612;SDS011;66777;52.282;5.960;2023-02-28T17:13:49;6.88;;;3.03;;
77612;SDS011;66777;52.282;5.960;2023-02-28T17:16:27;7.05;;;2.92;;
77612;SDS011;66777;52.282;5.960;2023-02-28T17:18:57;7.25;;;3.45;;
77612;SDS011;66777;52.282;5.960;2023-02-28T17:21:31;7.10;;;3.65;;
77612;SDS011;66777;52.282;5.960;2023-02-28T17:23:58;7.93;;;3.45;;
77612;SDS011;66777;52.282;5.960;2023-02-28T17:26:23;9.65;;;3.42;;
77612;SDS011;66777;52.282;5.960;2023-02-28T17:28:50;7.60;;;3.17;;